Union Gap, Washington
Current Conditions -  °F | °C
As of 3:53 AM on Sunday 21 Dec 2014 (Local Time) from KYKM Reporting Station
Light Rain Light Rain  
Wind Chill: 44°   Ceiling: Unl
Heat Index: 44°   Visibility: 10mi
Dew Point: 40°   Wind: 3mph
Humidity: 85%   Direction: NA
Pressure: 29.66"   Gusts: NA
Location:  46.562°N, 120.899°W
Report Text: KYKM 211153Z AUTO VRB03KT 10SM -RA FEW028 SCT075 SCT120 07/04 A2966 RMK AO2 RAB52 SLP049 P0000 60005 70021 T00670044 10067 20044 51040
Loading
Personal Weather Stations






























Interactive Weather Map New forecast layout! Learn more

10-Day Weather Forecast

Advertisements
Track Severe Weather on mobile